MMCP/CPE METAR and TAF weather

Enter ICAO airport designator
Station Type Date Time Source
MMCP METAR 2018/12/11 19:40 UTC NOAA

MMCP 111940Z 35010KT 7SM SCT020 SCT260 25/13 A3020 RMK 8/101


Station Type Date Time Source
MMCP Decoded METAR 2018/12/11 19:40 UTC NOAA

Campeche, Camp., Mexico (MMCP) 19-51N 090-33W
Dec 11, 2018 - 02:40 PM EST / 2018.12.11 1940 UTC
Wind: from the N (350 degrees) at 12 MPH (10 KT):0
Visibility: 7 mile(s):0
Sky conditions: partly cloudy
Temperature: 77 F (25 C)
Dew Point: 55 F (13 C)
Relative Humidity: 47%
Pressure (altimeter): 30.2 in. Hg (1022 hPa)
ob: MMCP 111940Z 35010KT 7SM SCT020 SCT260 25/13 A3020 RMK 8/101
cycle: 19

Station Type Date Time Source
MMCP TAF 2018/12/11 18:59 UTC NOAA

TAF MMCP 111657Z 1118/1218 03015KT P6SM BKN030 BKN260
FM120200 06015KT 6SM HZ SCT020 SCT080


Example: see airport list